sensor_id;sensor_type;location;lat;lon;timestamp;pressure;altitude;pressure_sealevel;temperature;humidity
29903;BME280;30288;50.514;9.678;2023-02-10T00:00:55;100540.25;;;-5.95;100.00
29903;BME280;30288;50.514;9.678;2023-02-10T00:03:01;100541.69;;;-5.85;100.00
29903;BME280;30288;50.514;9.678;2023-02-10T00:05:09;100549.03;;;-5.85;100.00
29903;BME280;30288;50.514;9.678;2023-02-10T00:07:14;100549.50;;;-5.91;100.00
29903;BME280;30288;50.514;9.678;2023-02-10T00:09:19;100552.66;;;-5.80;100.00
29903;BME280;30288;50.514;9.678;2023-02-10T00:11:25;100559.22;;;-5.79;100.00
29903;BME280;30288;50.514;9.678;2023-02-10T00:13:44;100553.94;;;-5.85;100.00
29903;BME280;30288;50.514;9.678;2023-02-10T00:15:49;100559.78;;;-5.83;100.00
29903;BME280;30288;50.514;9.678;2023-02-10T00:17:54;100559.75;;;-5.96;100.00
29903;BME280;30288;50.514;9.678;2023-02-10T00:19:59;100561.94;;;-6.12;100.00
29903;BME280;30288;50.514;9.678;2023-02-10T00:22:07;100563.94;;;-6.07;100.00
29903;BME280;30288;50.514;9.678;2023-02-10T00:24:12;100567.22;;;-5.95;100.00
29903;BME280;30288;50.514;9.678;2023-02-10T00:26:18;100570.00;;;-6.02;100.00
29903;BME280;30288;50.514;9.678;2023-02-10T00:28:23;100567.66;;;-6.00;100.00
29903;BME280;30288;50.514;9.678;2023-02-10T00:30:28;100575.16;;;-6.10;100.00
29903;BME280;30288;50.514;9.678;2023-02-10T00:32:33;100565.00;;;-6.03;100.00
29903;BME280;30288;50.514;9.678;2023-02-10T00:34:42;100565.75;;;-6.04;100.00
29903;BME280;30288;50.514;9.678;2023-02-10T00:36:49;100561.94;;;-6.12;100.00
29903;BME280;30288;50.514;9.678;2023-02-10T00:38:58;100563.03;;;-6.21;100.00
29903;BME280;30288;50.514;9.678;2023-02-10T00:41:04;100575.09;;;-6.24;100.00
29903;BME280;30288;50.514;9.678;2023-02-10T00:43:10;100570.91;;;-6.25;100.00
29903;BME280;30288;50.514;9.678;2023-02-10T00:45:15;100581.34;;;-6.27;100.00
29903;BME280;30288;50.514;9.678;2023-02-10T00:47:20;100577.72;;;-6.21;100.00
29903;BME280;30288;50.514;9.678;2023-02-10T00:49:28;100575.16;;;-6.10;100.00
29903;BME280;30288;50.514;9.678;2023-02-10T00:51:33;100573.50;;;-6.23;100.00
29903;BME280;30288;50.514;9.678;2023-02-10T00:53:39;100571.25;;;-6.32;100.00
29903;BME280;30288;50.514;9.678;2023-02-10T00:55:47;100573.91;;;-6.29;100.00
29903;BME280;30288;50.514;9.678;2023-02-10T01:00:54;100576.31;;;-6.17;100.00
29903;BME280;30288;50.514;9.678;2023-02-10T01:03:00;100577.72;;;-6.09;100.00
29903;BME280;30288;50.514;9.678;2023-02-10T01:05:07;100574.59;;;-6.06;100.00
29903;BME280;30288;50.514;9.678;2023-02-10T01:07:12;100575.78;;;-6.01;100.00
29903;BME280;30288;50.514;9.678;2023-02-10T01:09:18;100582.81;;;-6.06;100.00
29903;BME280;30288;50.514;9.678;2023-02-10T01:11:26;100591.78;;;-6.06;100.00
29903;BME280;30288;50.514;9.678;2023-02-10T01:13:31;100591.78;;;-6.06;100.00
29903;BME280;30288;50.514;9.678;2023-02-10T01:15:42;100599.00;;;-5.96;100.00
29903;BME280;30288;50.514;9.678;2023-02-10T01:17:47;100600.72;;;-5.95;100.00
29903;BME280;30288;50.514;9.678;2023-02-10T01:19:53;100600.06;;;-5.93;100.00
29903;BME280;30288;50.514;9.678;2023-02-10T01:21:58;100594.03;;;-5.85;100.00
29903;BME280;30288;50.514;9.678;2023-02-10T01:24:04;100591.47;;;-5.86;100.00
29903;BME280;30288;50.514;9.678;2023-02-10T01:26:11;100586.00;;;-5.95;100.00
29903;BME280;30288;50.514;9.678;2023-02-10T01:28:19;100590.91;;;-5.95;100.00
29903;BME280;30288;50.514;9.678;2023-02-10T01:30:24;100596.25;;;-6.01;100.00
29903;BME280;30288;50.514;9.678;2023-02-10T01:32:29;100588.78;;;-6.02;100.00
29903;BME280;30288;50.514;9.678;2023-02-10T01:34:35;100599.41;;;-5.90;100.00
29903;BME280;30288;50.514;9.678;2023-02-10T01:36:41;100597.25;;;-5.86;100.00
29903;BME280;30288;50.514;9.678;2023-02-10T01:38:47;100594.78;;;-5.86;100.00
29903;BME280;30288;50.514;9.678;2023-02-10T01:40:52;100595.19;;;-6.04;100.00
29903;BME280;30288;50.514;9.678;2023-02-10T01:42:57;100599.47;;;-6.13;100.00
29903;BME280;30288;50.514;9.678;2023-02-10T01:45:18;100597.78;;;-6.14;100.00
29903;BME280;30288;50.514;9.678;2023-02-10T01:47:24;100593.06;;;-6.11;100.00
29903;BME280;30288;50.514;9.678;2023-02-10T01:49:34;100589.13;;;-6.09;100.00
29903;BME280;30288;50.514;9.678;2023-02-10T01:51:46;100592.81;;;-5.91;100.00
29903;BME280;30288;50.514;9.678;2023-02-10T01:53:54;100593.66;;;-5.91;100.00
29903;BME280;30288;50.514;9.678;2023-02-10T01:56:02;100601.13;;;-5.89;100.00
29903;BME280;30288;50.514;9.678;2023-02-10T01:58:10;100608.09;;;-5.82;100.00
29903;BME280;30288;50.514;9.678;2023-02-10T02:00:22;100608.75;;;-5.85;100.00
29903;BME280;30288;50.514;9.678;2023-02-10T02:02:28;100611.72;;;-5.77;100.00
29903;BME280;30288;50.514;9.678;2023-02-10T02:04:40;100617.22;;;-5.68;100.00
29903;BME280;30288;50.514;9.678;2023-02-10T02:06:47;100610.34;;;-5.60;100.00
29903;BME280;30288;50.514;9.678;2023-02-10T02:08:53;100604.13;;;-5.44;100.00
29903;BME280;30288;50.514;9.678;2023-02-10T02:11:06;100611.75;;;-5.27;100.00
29903;BME280;30288;50.514;9.678;2023-02-10T02:13:22;100613.84;;;-5.07;100.00
29903;BME280;30288;50.514;9.678;2023-02-10T02:15:39;100613.50;;;-5.00;100.00
29903;BME280;30288;50.514;9.678;2023-02-10T02:17:50;100612.53;;;-4.89;100.00
29903;BME280;30288;50.514;9.678;2023-02-10T02:20:20;100617.13;;;-4.69;100.00
29903;BME280;30288;50.514;9.678;2023-02-10T02:23:04;100620.81;;;-4.49;100.00
29903;BME280;30288;50.514;9.678;2023-02-10T02:25:32;100616.75;;;-4.35;100.00
29903;BME280;30288;50.514;9.678;2023-02-10T02:28:22;100622.03;;;-4.16;100.00
29903;BME280;30288;50.514;9.678;2023-02-10T02:30:48;100628.25;;;-4.08;100.00
29903;BME280;30288;50.514;9.678;2023-02-10T02:33:02;100628.03;;;-3.98;100.00
29903;BME280;30288;50.514;9.678;2023-02-10T02:35:14;100622.00;;;-3.90;100.00
29903;BME280;30288;50.514;9.678;2023-02-10T02:37:23;100611.63;;;-3.84;100.00
29903;BME280;30288;50.514;9.678;2023-02-10T02:39:33;100606.59;;;-3.73;100.00
29903;BME280;30288;50.514;9.678;2023-02-10T02:41:38;100617.75;;;-3.65;100.00
29903;BME280;30288;50.514;9.678;2023-02-10T02:43:44;100611.75;;;-3.55;100.00
29903;BME280;30288;50.514;9.678;2023-02-10T02:45:55;100607.06;;;-3.50;100.00
29903;BME280;30288;50.514;9.678;2023-02-10T02:48:17;100607.59;;;-3.41;100.00
29903;BME280;30288;50.514;9.678;2023-02-10T02:50:33;100608.06;;;-3.34;100.00
29903;BME280;30288;50.514;9.678;2023-02-10T02:52:50;100605.16;;;-3.27;100.00
29903;BME280;30288;50.514;9.678;2023-02-10T02:55:05;100609.75;;;-3.18;100.00
29903;BME280;30288;50.514;9.678;2023-02-10T02:57:19;100610.13;;;-3.12;100.00
29903;BME280;30288;50.514;9.678;2023-02-10T02:59:33;100605.19;;;-3.12;100.00
29903;BME280;30288;50.514;9.678;2023-02-10T03:01:44;100605.28;;;-3.11;100.00
29903;BME280;30288;50.514;9.678;2023-02-10T03:03:56;100604.84;;;-3.03;100.00
29903;BME280;30288;50.514;9.678;2023-02-10T03:06:03;100604.84;;;-3.03;100.00
29903;BME280;30288;50.514;9.678;2023-02-10T03:08:09;100601.13;;;-2.97;100.00
29903;BME280;30288;50.514;9.678;2023-02-10T03:10:15;100604.53;;;-2.95;100.00
29903;BME280;30288;50.514;9.678;2023-02-10T03:12:21;100603.50;;;-2.84;100.00
29903;BME280;30288;50.514;9.678;2023-02-10T03:14:26;100596.03;;;-2.85;100.00
29903;BME280;30288;50.514;9.678;2023-02-10T03:16:32;100594.47;;;-2.83;100.00
29903;BME280;30288;50.514;9.678;2023-02-10T03:18:37;100593.13;;;-2.78;100.00
29903;BME280;30288;50.514;9.678;2023-02-10T03:20:45;100597.53;;;-2.73;100.00
29903;BME280;30288;50.514;9.678;2023-02-10T03:22:50;100596.34;;;-2.65;100.00
29903;BME280;30288;50.514;9.678;2023-02-10T03:24:56;100592.66;;;-2.56;100.00
29903;BME280;30288;50.514;9.678;2023-02-10T03:27:01;100591.91;;;-2.55;100.00
29903;BME280;30288;50.514;9.678;2023-02-10T03:29:09;100598.88;;;-2.48;100.00
29903;BME280;30288;50.514;9.678;2023-02-10T03:31:14;100602.25;;;-2.46;100.00
29903;BME280;30288;50.514;9.678;2023-02-10T03:33:20;100597.50;;;-2.43;100.00
29903;BME280;30288;50.514;9.678;2023-02-10T03:35:26;100606.00;;;-2.38;100.00
29903;BME280;30288;50.514;9.678;2023-02-10T03:37:33;100603.84;;;-2.32;100.00
29903;BME280;30288;50.514;9.678;2023-02-10T03:39:39;100610.91;;;-2.24;100.00
29903;BME280;30288;50.514;9.678;2023-02-10T03:41:44;100607.63;;;-2.23;100.00
29903;BME280;30288;50.514;9.678;2023-02-10T03:43:49;100614.91;;;-2.26;100.00
29903;BME280;30288;50.514;9.678;2023-02-10T03:45:55;100615.00;;;-2.24;100.00
29903;BME280;30288;50.514;9.678;2023-02-10T03:48:00;100616.66;;;-2.23;100.00
29903;BME280;30288;50.514;9.678;2023-02-10T03:50:06;100614.03;;;-2.26;100.00
29903;BME280;30288;50.514;9.678;2023-02-10T03:52:11;100612.56;;;-2.23;100.00
29903;BME280;30288;50.514;9.678;2023-02-10T03:54:20;100612.56;;;-2.23;100.00
29903;BME280;30288;50.514;9.678;2023-02-10T03:56:25;100620.69;;;-2.25;100.00
29903;BME280;30288;50.514;9.678;2023-02-10T03:58:29;100622.22;;;-2.27;100.00
29903;BME280;30288;50.514;9.678;2023-02-10T04:00:35;100620.53;;;-2.28;100.00
29903;BME280;30288;50.514;9.678;2023-02-10T04:02:40;100629.59;;;-2.27;100.00
29903;BME280;30288;50.514;9.678;2023-02-10T04:04:45;100634.03;;;-2.22;100.00
29903;BME280;30288;50.514;9.678;2023-02-10T04:06:51;100640.75;;;-2.19;100.00
29903;BME280;30288;50.514;9.678;2023-02-10T04:08:56;100645.59;;;-2.21;100.00
29903;BME280;30288;50.514;9.678;2023-02-10T04:11:04;100644.22;;;-2.15;100.00
29903;BME280;30288;50.514;9.678;2023-02-10T04:13:11;100646.94;;;-2.11;100.00
29903;BME280;30288;50.514;9.678;2023-02-10T04:15:17;100639.06;;;-2.04;100.00
29903;BME280;30288;50.514;9.678;2023-02-10T04:17:22;100640.78;;;-2.03;100.00
29903;BME280;30288;50.514;9.678;2023-02-10T04:19:28;100637.69;;;-1.99;100.00
29903;BME280;30288;50.514;9.678;2023-02-10T04:21:33;100644.88;;;-2.03;100.00
29903;BME280;30288;50.514;9.678;2023-02-10T04:23:39;100653.44;;;-1.97;100.00
29903;BME280;30288;50.514;9.678;2023-02-10T04:25:44;100643.72;;;-1.94;100.00
29903;BME280;30288;50.514;9.678;2023-02-10T04:27:52;100648.06;;;-1.90;100.00
29903;BME280;30288;50.514;9.678;2023-02-10T04:29:57;100650.94;;;-1.82;100.00
29903;BME280;30288;50.514;9.678;2023-02-10T04:32:03;100651.09;;;-1.79;100.00
29903;BME280;30288;50.514;9.678;2023-02-10T04:34:09;100653.50;;;-1.81;100.00
29903;BME280;30288;50.514;9.678;2023-02-10T04:36:13;100661.06;;;-1.78;100.00
29903;BME280;30288;50.514;9.678;2023-02-10T04:38:20;100662.06;;;-1.74;100.00
29903;BME280;30288;50.514;9.678;2023-02-10T04:40:25;100664.66;;;-1.71;100.00
29903;BME280;30288;50.514;9.678;2023-02-10T04:42:30;100661.63;;;-1.67;100.00
29903;BME280;30288;50.514;9.678;2023-02-10T04:44:37;100657.34;;;-1.69;100.00
29903;BME280;30288;50.514;9.678;2023-02-10T04:46:42;100659.19;;;-1.65;100.00
29903;BME280;30288;50.514;9.678;2023-02-10T04:48:48;100651.03;;;-1.64;100.00
29903;BME280;30288;50.514;9.678;2023-02-10T04:50:53;100646.22;;;-1.61;100.00
29903;BME280;30288;50.514;9.678;2023-02-10T04:52:59;100647.94;;;-1.60;100.00
29903;BME280;30288;50.514;9.678;2023-02-10T04:55:04;100653.06;;;-1.57;100.00
29903;BME280;30288;50.514;9.678;2023-02-10T04:57:10;100642.47;;;-1.55;100.00
29903;BME280;30288;50.514;9.678;2023-02-10T04:59:16;100645.03;;;-1.53;100.00
29903;BME280;30288;50.514;9.678;2023-02-10T05:01:23;100650.81;;;-1.53;100.00
29903;BME280;30288;50.514;9.678;2023-02-10T05:03:29;100654.19;;;-1.51;100.00
29903;BME280;30288;50.514;9.678;2023-02-10T05:05:34;100649.25;;;-1.51;100.00
29903;BME280;30288;50.514;9.678;2023-02-10T05:07:39;100647.72;;;-1.49;100.00
29903;BME280;30288;50.514;9.678;2023-02-10T05:09:45;100653.53;;;-1.48;100.00
29903;BME280;30288;50.514;9.678;2023-02-10T05:11:50;100648.72;;;-1.45;100.00
29903;BME280;30288;50.514;9.678;2023-02-10T05:13:55;100657.22;;;-1.40;100.00
29903;BME280;30288;50.514;9.678;2023-02-10T05:16:01;100655.75;;;-1.37;100.00
29903;BME280;30288;50.514;9.678;2023-02-10T05:18:11;100655.84;;;-1.35;100.00
29903;BME280;30288;50.514;9.678;2023-02-10T05:20:16;100656.16;;;-1.29;100.00
29903;BME280;30288;50.514;9.678;2023-02-10T05:22:21;100658.53;;;-1.30;100.00
29903;BME280;30288;50.514;9.678;2023-02-10T05:24:32;100669.41;;;-1.27;100.00
29903;BME280;30288;50.514;9.678;2023-02-10T05:26:37;100672.06;;;-1.24;100.00
29903;BME280;30288;50.514;9.678;2023-02-10T05:28:42;100671.44;;;-1.20;100.00
29903;BME280;30288;50.514;9.678;2023-02-10T05:30:48;100679.75;;;-1.18;100.00
29903;BME280;30288;50.514;9.678;2023-02-10T05:32:53;100676.38;;;-1.20;100.00
29903;BME280;30288;50.514;9.678;2023-02-10T05:35:01;100678.66;;;-1.23;100.00
29903;BME280;30288;50.514;9.678;2023-02-10T05:37:06;100671.34;;;-1.21;100.00
29903;BME280;30288;50.514;9.678;2023-02-10T05:39:12;100674.03;;;-1.17;100.00
29903;BME280;30288;50.514;9.678;2023-02-10T05:41:29;100684.16;;;-1.12;100.00
29903;BME280;30288;50.514;9.678;2023-02-10T05:43:37;100672.88;;;-1.07;100.00
29903;BME280;30288;50.514;9.678;2023-02-10T05:45:42;100672.19;;;-1.05;100.00
29903;BME280;30288;50.514;9.678;2023-02-10T05:47:50;100663.97;;;-1.04;100.00
29903;BME280;30288;50.514;9.678;2023-02-10T05:49:55;100673.41;;;-0.97;100.00
29903;BME280;30288;50.514;9.678;2023-02-10T05:52:03;100671.63;;;-0.99;100.00
29903;BME280;30288;50.514;9.678;2023-02-10T05:54:09;100671.78;;;-0.96;100.00
29903;BME280;30288;50.514;9.678;2023-02-10T05:56:15;100672.66;;;-0.96;100.00
29903;BME280;30288;50.514;9.678;2023-02-10T05:58:19;100670.31;;;-0.93;100.00
29903;BME280;30288;50.514;9.678;2023-02-10T06:00:25;100664.59;;;-0.92;100.00
29903;BME280;30288;50.514;9.678;2023-02-10T06:02:30;100671.06;;;-0.94;100.00
29903;BME280;30288;50.514;9.678;2023-02-10T06:04:35;100666.13;;;-0.94;100.00
29903;BME280;30288;50.514;9.678;2023-02-10T06:06:41;100663.66;;;-0.94;100.00
29903;BME280;30288;50.514;9.678;2023-02-10T06:08:49;100666.34;;;-0.89;100.00
29903;BME280;30288;50.514;9.678;2023-02-10T06:10:55;100668.91;;;-0.88;100.00
29903;BME280;30288;50.514;9.678;2023-02-10T06:13:00;100671.53;;;-0.84;100.00
29903;BME280;30288;50.514;9.678;2023-02-10T06:15:07;100670.75;;;-0.83;100.00
29903;BME280;30288;50.514;9.678;2023-02-10T06:17:12;100674.09;;;-0.83;100.00
29903;BME280;30288;50.514;9.678;2023-02-10T06:19:17;100680.78;;;-0.80;100.00
29903;BME280;30288;50.514;9.678;2023-02-10T06:21:23;100678.47;;;-0.77;100.00
29903;BME280;30288;50.514;9.678;2023-02-10T06:23:27;100675.25;;;-0.76;100.00
29903;BME280;30288;50.514;9.678;2023-02-10T06:25:35;100674.22;;;-0.80;100.00
29903;BME280;30288;50.514;9.678;2023-02-10T06:27:40;100684.81;;;-0.82;100.00
29903;BME280;30288;50.514;9.678;2023-02-10T06:29:45;100685.91;;;-0.77;100.00
29903;BME280;30288;50.514;9.678;2023-02-10T06:31:50;100678.53;;;-0.76;100.00
29903;BME280;30288;50.514;9.678;2023-02-10T06:33:55;100691.16;;;-0.71;100.00
29903;BME280;30288;50.514;9.678;2023-02-10T06:36:01;100688.03;;;-0.67;100.00
29903;BME280;30288;50.514;9.678;2023-02-10T06:38:08;100684.16;;;-0.62;100.00
29903;BME280;30288;50.514;9.678;2023-02-10T06:40:14;100689.88;;;-0.63;100.00
29903;BME280;30288;50.514;9.678;2023-02-10T06:42:22;100699.16;;;-0.59;100.00
29903;BME280;30288;50.514;9.678;2023-02-10T06:44:27;100693.25;;;-0.61;100.00
29903;BME280;30288;50.514;9.678;2023-02-10T06:46:32;100692.66;;;-0.57;100.00
29903;BME280;30288;50.514;9.678;2023-02-10T06:48:38;100690.78;;;-0.61;100.00
29903;BME280;30288;50.514;9.678;2023-02-10T06:50:43;100694.84;;;-0.63;100.00
29903;BME280;30288;50.514;9.678;2023-02-10T06:52:49;100697.63;;;-0.57;100.00
29903;BME280;30288;50.514;9.678;2023-02-10T06:54:54;100693.56;;;-0.55;100.00
29903;BME280;30288;50.514;9.678;2023-02-10T06:56:59;100696.13;;;-0.54;100.00
29903;BME280;30288;50.514;9.678;2023-02-10T06:59:07;100702.69;;;-0.54;100.00
29903;BME280;30288;50.514;9.678;2023-02-10T07:01:16;100702.84;;;-0.51;100.00
29903;BME280;30288;50.514;9.678;2023-02-10T07:03:22;100703.75;;;-0.49;100.00
29903;BME280;30288;50.514;9.678;2023-02-10T07:05:27;100707.78;;;-0.51;100.00
29903;BME280;30288;50.514;9.678;2023-02-10T07:07:33;100716.13;;;-0.49;100.00
29903;BME280;30288;50.514;9.678;2023-02-10T07:09:39;100707.94;;;-0.48;100.00
29903;BME280;30288;50.514;9.678;2023-02-10T07:11:44;100711.19;;;-0.49;100.00
29903;BME280;30288;50.514;9.678;2023-02-10T07:13:49;100719.50;;;-0.47;100.00
29903;BME280;30288;50.514;9.678;2023-02-10T07:15:56;100717.97;;;-0.45;100.00
29903;BME280;30288;50.514;9.678;2023-02-10T07:18:01;100717.97;;;-0.45;100.00
29903;BME280;30288;50.514;9.678;2023-02-10T07:20:08;100724.00;;;-0.40;100.00
29903;BME280;30288;50.514;9.678;2023-02-10T07:22:13;100727.31;;;-0.39;100.00
29903;BME280;30288;50.514;9.678;2023-02-10T07:24:18;100736.50;;;-0.37;100.00
29903;BME280;30288;50.514;9.678;2023-02-10T07:26:23;100734.88;;;-0.36;100.00
29903;BME280;30288;50.514;9.678;2023-02-10T07:28:28;100736.09;;;-0.28;100.00
29903;BME280;30288;50.514;9.678;2023-02-10T07:30:34;100736.94;;;-0.28;100.00
29903;BME280;30288;50.514;9.678;2023-02-10T07:32:42;100743.75;;;-0.24;100.00
29903;BME280;30288;50.514;9.678;2023-02-10T07:34:47;100735.69;;;-0.20;100.00
29903;BME280;30288;50.514;9.678;2023-02-10T07:36:54;100735.69;;;-0.20;100.00
29903;BME280;30288;50.514;9.678;2023-02-10T07:38:59;100737.53;;;-0.16;100.00
29903;BME280;30288;50.514;9.678;2023-02-10T07:41:05;100741.84;;;-0.12;100.00
29903;BME280;30288;50.514;9.678;2023-02-10T07:43:11;100737.84;;;-0.10;100.00
29903;BME280;30288;50.514;9.678;2023-02-10T07:45:25;100746.88;;;-0.10;100.00
29903;BME280;30288;50.514;9.678;2023-02-10T07:47:33;100749.41;;;-0.09;100.00
29903;BME280;30288;50.514;9.678;2023-02-10T07:49:40;100748.16;;;-0.01;100.00
29903;BME280;30288;50.514;9.678;2023-02-10T07:51:46;100744.13;;;0.02;100.00
29903;BME280;30288;50.514;9.678;2023-02-10T07:53:52;100743.47;;;0.06;100.00
29903;BME280;30288;50.514;9.678;2023-02-10T07:55:58;100748.84;;;0.15;100.00
29903;BME280;30288;50.514;9.678;2023-02-10T07:58:04;100747.16;;;0.14;100.00
29903;BME280;30288;50.514;9.678;2023-02-10T08:00:12;100748.72;;;0.12;100.00
29903;BME280;30288;50.514;9.678;2023-02-10T08:02:17;100750.25;;;0.10;100.00
29903;BME280;30288;50.514;9.678;2023-02-10T08:04:22;100752.25;;;0.17;100.00
29903;BME280;30288;50.514;9.678;2023-02-10T08:06:30;100755.38;;;0.13;100.00
29903;BME280;30288;50.514;9.678;2023-02-10T08:08:35;100744.91;;;0.18;100.00
29903;BME280;30288;50.514;9.678;2023-02-10T08:10:41;100750.31;;;0.29;100.00
29903;BME280;30288;50.514;9.678;2023-02-10T08:12:46;100762.16;;;0.34;100.00
29903;BME280;30288;50.514;9.678;2023-02-10T08:14:51;100761.56;;;0.40;100.00
29903;BME280;30288;50.514;9.678;2023-02-10T08:16:57;100761.56;;;0.40;100.00
29903;BME280;30288;50.514;9.678;2023-02-10T08:19:02;100764.91;;;0.40;100.00
29903;BME280;30288;50.514;9.678;2023-02-10T08:21:08;100767.47;;;0.42;100.00
29903;BME280;30288;50.514;9.678;2023-02-10T08:23:17;100768.66;;;0.50;100.00
29903;BME280;30288;50.514;9.678;2023-02-10T08:25:23;100766.81;;;0.46;100.00
29903;BME280;30288;50.514;9.678;2023-02-10T08:27:28;100774.31;;;0.48;100.00
29903;BME280;30288;50.514;9.678;2023-02-10T08:29:34;100776.84;;;0.49;100.00
29903;BME280;30288;50.514;9.678;2023-02-10T08:31:39;100780.84;;;0.46;100.00
29903;BME280;30288;50.514;9.678;2023-02-10T08:33:44;100776.72;;;0.46;100.00
29903;BME280;30288;50.514;9.678;2023-02-10T08:35:50;100772.19;;;0.55;100.00
29903;BME280;30288;50.514;9.678;2023-02-10T08:37:55;100774.28;;;0.65;100.00
29903;BME280;30288;50.514;9.678;2023-02-10T08:40:04;100775.84;;;0.63;100.00
29903;BME280;30288;50.514;9.678;2023-02-10T08:42:10;100777.69;;;0.67;100.00
29903;BME280;30288;50.514;9.678;2023-02-10T08:44:15;100780.44;;;0.73;100.00
29903;BME280;30288;50.514;9.678;2023-02-10T08:46:20;100778.06;;;0.76;100.00
29903;BME280;30288;50.514;9.678;2023-02-10T08:48:26;100774.97;;;0.80;100.00
29903;BME280;30288;50.514;9.678;2023-02-10T08:50:33;100783.88;;;0.95;100.00
29903;BME280;30288;50.514;9.678;2023-02-10T08:52:38;100770.81;;;0.99;100.00
29903;BME280;30288;50.514;9.678;2023-02-10T08:54:44;100789.22;;;1.04;100.00
29903;BME280;30288;50.514;9.678;2023-02-10T08:56:53;100773.22;;;0.97;100.00
29903;BME280;30288;50.514;9.678;2023-02-10T08:58:58;100784.38;;;1.07;100.00
29903;BME280;30288;50.514;9.678;2023-02-10T09:01:08;100785.69;;;0.99;100.00
29903;BME280;30288;50.514;9.678;2023-02-10T09:03:15;100780.34;;;1.09;100.00
29903;BME280;30288;50.514;9.678;2023-02-10T09:05:20;100776.81;;;1.23;100.00
29903;BME280;30288;50.514;9.678;2023-02-10T09:07:25;100777.19;;;1.32;100.00
29903;BME280;30288;50.514;9.678;2023-02-10T09:09:30;100781.22;;;1.49;100.00
29903;BME280;30288;50.514;9.678;2023-02-10T09:11:37;100778.22;;;1.56;100.00
29903;BME280;30288;50.514;9.678;2023-02-10T09:13:44;100782.81;;;1.47;100.00
29903;BME280;30288;50.514;9.678;2023-02-10T09:15:50;100785.09;;;1.63;100.00
29903;BME280;30288;50.514;9.678;2023-02-10T09:17:55;100783.41;;;1.62;100.00
29903;BME280;30288;50.514;9.678;2023-02-10T09:20:02;100789.22;;;1.63;100.00
29903;BME280;30288;50.514;9.678;2023-02-10T09:22:09;100792.44;;;1.60;100.00
29903;BME280;30288;50.514;9.678;2023-02-10T09:24:16;100781.97;;;1.67;100.00
29903;BME280;30288;50.514;9.678;2023-02-10T09:26:23;100775.53;;;1.72;100.00
29903;BME280;30288;50.514;9.678;2023-02-10T09:28:30;100782.09;;;1.91;100.00
29903;BME280;30288;50.514;9.678;2023-02-10T09:30:40;100781.03;;;1.85;100.00
29903;BME280;30288;50.514;9.678;2023-02-10T09:32:46;100792.03;;;1.91;100.00
29903;BME280;30288;50.514;9.678;2023-02-10T09:34:51;100789.72;;;1.96;100.00
29903;BME280;30288;50.514;9.678;2023-02-10T09:36:56;100795.78;;;2.23;100.00
29903;BME280;30288;50.514;9.678;2023-02-10T09:39:03;100796.84;;;2.30;100.00
29903;BME280;30288;50.514;9.678;2023-02-10T09:41:20;100790.75;;;2.44;100.00
29903;BME280;30288;50.514;9.678;2023-02-10T09:43:54;100791.00;;;2.28;100.00
29903;BME280;30288;50.514;9.678;2023-02-10T09:46:26;100798.28;;;2.45;100.00
29903;BME280;30288;50.514;9.678;2023-02-10T09:48:43;100809.59;;;2.37;100.00
29903;BME280;30288;50.514;9.678;2023-02-10T09:51:04;100803.16;;;2.42;100.00
29903;BME280;30288;50.514;9.678;2023-02-10T09:53:15;100807.22;;;2.62;100.00
29903;BME280;30288;50.514;9.678;2023-02-10T09:55:28;100808.81;;;2.60;100.00
29903;BME280;30288;50.514;9.678;2023-02-10T09:57:39;100809.03;;;2.67;100.00
29903;BME280;30288;50.514;9.678;2023-02-10T09:59:47;100801.91;;;2.76;100.00
29903;BME280;30288;50.514;9.678;2023-02-10T10:02:03;100809.72;;;2.62;100.00
29903;BME280;30288;50.514;9.678;2023-02-10T10:04:16;100811.56;;;2.68;100.00
29903;BME280;30288;50.514;9.678;2023-02-10T10:06:27;100807.78;;;2.78;100.00
29903;BME280;30288;50.514;9.678;2023-02-10T10:08:40;100809.59;;;2.82;100.00
29903;BME280;30288;50.514;9.678;2023-02-10T10:10:49;100807.78;;;2.78;100.00
29903;BME280;30288;50.514;9.678;2023-02-10T10:12:54;100809.84;;;2.66;100.00
29903;BME280;30288;50.514;9.678;2023-02-10T10:14:59;100806.09;;;2.77;100.00
29903;BME280;30288;50.514;9.678;2023-02-10T10:17:29;100811.06;;;2.77;100.00
29903;BME280;30288;50.514;9.678;2023-02-10T10:19:55;100801.47;;;3.09;100.00
29903;BME280;30288;50.514;9.678;2023-02-10T10:22:24;100797.47;;;3.13;100.00
29903;BME280;30288;50.514;9.678;2023-02-10T10:24:48;100799.81;;;3.32;100.00
29903;BME280;30288;50.514;9.678;2023-02-10T10:27:12;100796.28;;;3.51;100.00
29903;BME280;30288;50.514;9.678;2023-02-10T10:29:32;100792.06;;;3.74;100.00
29903;BME280;30288;50.514;9.678;2023-02-10T10:31:44;100791.75;;;3.65;100.00
29903;BME280;30288;50.514;9.678;2023-02-10T10:33:55;100784.38;;;3.68;100.00
29903;BME280;30288;50.514;9.678;2023-02-10T10:36:05;100798.81;;;3.52;100.00
29903;BME280;30288;50.514;9.678;2023-02-10T10:38:13;100801.22;;;3.26;100.00
29903;BME280;30288;50.514;9.678;2023-02-10T10:40:22;100797.16;;;3.04;100.00
29903;BME280;30288;50.514;9.678;2023-02-10T10:42:41;100794.13;;;2.90;100.00
29903;BME280;30288;50.514;9.678;2023-02-10T10:44:49;100789.28;;;2.93;100.00
29903;BME280;30288;50.514;9.678;2023-02-10T10:47:02;100788.22;;;2.87;100.00
29903;BME280;30288;50.514;9.678;2023-02-10T10:49:13;100790.94;;;2.93;100.00
29903;BME280;30288;50.514;9.678;2023-02-10T10:51:18;100797.47;;;2.91;100.00
29903;BME280;30288;50.514;9.678;2023-02-10T10:53:37;100792.06;;;2.79;100.00
29903;BME280;30288;50.514;9.678;2023-02-10T10:55:46;100787.88;;;2.78;100.00
29903;BME280;30288;50.514;9.678;2023-02-10T10:57:53;100790.47;;;2.81;100.00
29903;BME280;30288;50.514;9.678;2023-02-10T11:00:13;100788.91;;;2.83;100.00
29903;BME280;30288;50.514;9.678;2023-02-10T11:02:22;100781.84;;;2.95;100.00
29903;BME280;30288;50.514;9.678;2023-02-10T11:04:31;100788.44;;;2.93;100.00
29903;BME280;30288;50.514;9.678;2023-02-10T11:06:40;100782.72;;;2.95;100.00